sensor_id;sensor_type;location;lat;lon;timestamp;temperature;humidity
27162;DHT22;54464;50.558;9.704;2024-01-15T01:26:00;-2.80;99.90
27162;DHT22;54464;50.558;9.704;2024-01-15T01:28:25;-2.80;99.90
27162;DHT22;54464;50.558;9.704;2024-01-15T01:30:51;-2.80;99.90
27162;DHT22;54464;50.558;9.704;2024-01-15T01:33:52;-2.70;99.90
27162;DHT22;54464;50.558;9.704;2024-01-15T01:36:36;-2.70;99.90
27162;DHT22;54464;50.558;9.704;2024-01-15T01:39:09;-2.80;99.90
27162;DHT22;54464;50.558;9.704;2024-01-15T01:41:35;-2.80;99.90
27162;DHT22;54464;50.558;9.704;2024-01-15T01:44:01;-2.70;99.90
27162;DHT22;54464;50.558;9.704;2024-01-15T01:46:27;-2.80;99.90
27162;DHT22;54464;50.558;9.704;2024-01-15T01:48:55;-2.90;99.90
27162;DHT22;54464;50.558;9.704;2024-01-15T01:51:41;-2.80;99.90
27162;DHT22;54464;50.558;9.704;2024-01-15T01:54:08;-2.80;99.90
27162;DHT22;54464;50.558;9.704;2024-01-15T01:56:35;-2.90;99.90
27162;DHT22;54464;50.558;9.704;2024-01-15T01:59:01;-2.80;99.90
27162;DHT22;54464;50.558;9.704;2024-01-15T02:01:29;-2.90;99.90
27162;DHT22;54464;50.558;9.704;2024-01-15T02:03:54;-2.90;99.90
27162;DHT22;54464;50.558;9.704;2024-01-15T02:06:22;-2.90;99.90
27162;DHT22;54464;50.558;9.704;2024-01-15T02:08:48;-2.90;99.90
27162;DHT22;54464;50.558;9.704;2024-01-15T02:11:14;-2.90;99.90
27162;DHT22;54464;50.558;9.704;2024-01-15T02:13:39;-2.90;99.90
27162;DHT22;54464;50.558;9.704;2024-01-15T02:16:05;-2.90;99.90
27162;DHT22;54464;50.558;9.704;2024-01-15T02:18:40;-2.90;99.90
27162;DHT22;54464;50.558;9.704;2024-01-15T02:21:06;-2.90;99.90
27162;DHT22;54464;50.558;9.704;2024-01-15T02:23:31;-2.90;99.90
27162;DHT22;54464;50.558;9.704;2024-01-15T02:25:57;-2.80;99.90
27162;DHT22;54464;50.558;9.704;2024-01-15T02:28:22;-2.80;99.90
27162;DHT22;54464;50.558;9.704;2024-01-15T02:30:48;-2.90;99.90
27162;DHT22;54464;50.558;9.704;2024-01-15T02:33:13;-2.90;99.90
27162;DHT22;54464;50.558;9.704;2024-01-15T02:35:39;-2.80;99.90
27162;DHT22;54464;50.558;9.704;2024-01-15T02:38:06;-2.80;99.90
27162;DHT22;54464;50.558;9.704;2024-01-15T02:40:31;-2.80;99.90
27162;DHT22;54464;50.558;9.704;2024-01-15T02:42:57;-2.80;99.90
27162;DHT22;54464;50.558;9.704;2024-01-15T02:45:23;-2.80;99.90
27162;DHT22;54464;50.558;9.704;2024-01-15T02:47:49;-2.80;99.90
27162;DHT22;54464;50.558;9.704;2024-01-15T02:50:15;-2.90;99.90
27162;DHT22;54464;50.558;9.704;2024-01-15T02:52:44;-2.90;99.90
27162;DHT22;54464;50.558;9.704;2024-01-15T02:55:10;-2.90;99.90
27162;DHT22;54464;50.558;9.704;2024-01-15T02:57:35;-2.80;99.90
27162;DHT22;54464;50.558;9.704;2024-01-15T03:00:01;-2.90;99.90
27162;DHT22;54464;50.558;9.704;2024-01-15T03:02:27;-2.90;99.90
27162;DHT22;54464;50.558;9.704;2024-01-15T03:04:53;-2.80;99.90
27162;DHT22;54464;50.558;9.704;2024-01-15T03:07:18;-2.80;99.90
27162;DHT22;54464;50.558;9.704;2024-01-15T03:09:44;-2.80;99.90
27162;DHT22;54464;50.558;9.704;2024-01-15T03:12:10;-2.80;99.90
27162;DHT22;54464;50.558;9.704;2024-01-15T03:14:36;-2.90;99.90
27162;DHT22;54464;50.558;9.704;2024-01-15T03:17:02;-2.90;99.90
27162;DHT22;54464;50.558;9.704;2024-01-15T03:19:27;-2.80;99.90
27162;DHT22;54464;50.558;9.704;2024-01-15T03:21:53;-2.80;99.90
27162;DHT22;54464;50.558;9.704;2024-01-15T03:24:19;-2.80;99.90
27162;DHT22;54464;50.558;9.704;2024-01-15T03:26:45;-2.80;99.90
27162;DHT22;54464;50.558;9.704;2024-01-15T03:29:11;-2.80;99.90
27162;DHT22;54464;50.558;9.704;2024-01-15T03:31:36;-2.80;99.90
27162;DHT22;54464;50.558;9.704;2024-01-15T03:34:02;-2.80;99.90
27162;DHT22;54464;50.558;9.704;2024-01-15T03:36:27;-2.90;99.90
27162;DHT22;54464;50.558;9.704;2024-01-15T03:38:53;-2.90;99.90
27162;DHT22;54464;50.558;9.704;2024-01-15T03:41:18;-2.90;99.90
27162;DHT22;54464;50.558;9.704;2024-01-15T03:43:44;-2.90;99.90
27162;DHT22;54464;50.558;9.704;2024-01-15T03:46:09;-2.80;99.90
27162;DHT22;54464;50.558;9.704;2024-01-15T03:48:35;-2.80;99.90
27162;DHT22;54464;50.558;9.704;2024-01-15T03:51:01;-2.80;99.90
27162;DHT22;54464;50.558;9.704;2024-01-15T03:53:26;-2.80;99.90
27162;DHT22;54464;50.558;9.704;2024-01-15T03:55:52;-2.80;99.90
27162;DHT22;54464;50.558;9.704;2024-01-15T03:58:18;-2.80;99.90
27162;DHT22;54464;50.558;9.704;2024-01-15T04:00:43;-2.70;99.90
27162;DHT22;54464;50.558;9.704;2024-01-15T04:03:09;-2.70;99.90
27162;DHT22;54464;50.558;9.704;2024-01-15T04:05:34;-2.70;99.90
27162;DHT22;54464;50.558;9.704;2024-01-15T04:08:00;-2.60;99.90
27162;DHT22;54464;50.558;9.704;2024-01-15T04:10:26;-2.70;99.90
27162;DHT22;54464;50.558;9.704;2024-01-15T04:12:51;-2.60;99.90
27162;DHT22;54464;50.558;9.704;2024-01-15T04:15:17;-2.60;99.90
27162;DHT22;54464;50.558;9.704;2024-01-15T04:17:42;-2.60;99.90
27162;DHT22;54464;50.558;9.704;2024-01-15T04:20:08;-2.60;99.90
27162;DHT22;54464;50.558;9.704;2024-01-15T04:22:35;-2.60;99.90
27162;DHT22;54464;50.558;9.704;2024-01-15T04:25:01;-2.60;99.90
27162;DHT22;54464;50.558;9.704;2024-01-15T04:27:27;-2.60;99.90
27162;DHT22;54464;50.558;9.704;2024-01-15T04:29:52;-2.50;99.90
27162;DHT22;54464;50.558;9.704;2024-01-15T04:32:18;-2.50;99.90
27162;DHT22;54464;50.558;9.704;2024-01-15T04:34:44;-2.40;99.90
27162;DHT22;54464;50.558;9.704;2024-01-15T04:37:09;-2.40;99.90
27162;DHT22;54464;50.558;9.704;2024-01-15T04:39:35;-2.50;99.90
27162;DHT22;54464;50.558;9.704;2024-01-15T04:42:00;-2.50;99.90
27162;DHT22;54464;50.558;9.704;2024-01-15T04:44:26;-2.60;99.90
27162;DHT22;54464;50.558;9.704;2024-01-15T04:46:52;-2.60;99.90
27162;DHT22;54464;50.558;9.704;2024-01-15T04:49:17;-2.60;99.90
27162;DHT22;54464;50.558;9.704;2024-01-15T04:51:43;-2.60;99.90
27162;DHT22;54464;50.558;9.704;2024-01-15T04:54:08;-2.60;99.90
27162;DHT22;54464;50.558;9.704;2024-01-15T04:56:34;-2.60;99.90
27162;DHT22;54464;50.558;9.704;2024-01-15T04:58:59;-2.50;99.90
27162;DHT22;54464;50.558;9.704;2024-01-15T05:01:25;-2.50;99.90
27162;DHT22;54464;50.558;9.704;2024-01-15T05:03:50;-2.50;99.90
27162;DHT22;54464;50.558;9.704;2024-01-15T05:06:16;-2.50;99.90
27162;DHT22;54464;50.558;9.704;2024-01-15T05:08:42;-2.50;99.90
27162;DHT22;54464;50.558;9.704;2024-01-15T05:11:07;-2.50;99.90
27162;DHT22;54464;50.558;9.704;2024-01-15T05:13:33;-2.50;99.90
27162;DHT22;54464;50.558;9.704;2024-01-15T05:15:59;-2.40;99.90
27162;DHT22;54464;50.558;9.704;2024-01-15T05:18:24;-2.50;99.90
27162;DHT22;54464;50.558;9.704;2024-01-15T05:20:50;-2.40;99.90
27162;DHT22;54464;50.558;9.704;2024-01-15T05:23:15;-2.40;99.90
27162;DHT22;54464;50.558;9.704;2024-01-15T05:25:41;-2.40;99.90
27162;DHT22;54464;50.558;9.704;2024-01-15T05:28:07;-2.40;99.90
27162;DHT22;54464;50.558;9.704;2024-01-15T05:30:33;-2.40;99.90
27162;DHT22;54464;50.558;9.704;2024-01-15T05:32:58;-2.30;99.90
27162;DHT22;54464;50.558;9.704;2024-01-15T05:35:25;-2.40;99.90
27162;DHT22;54464;50.558;9.704;2024-01-15T05:37:51;-2.30;99.90
27162;DHT22;54464;50.558;9.704;2024-01-15T05:40:16;-2.30;99.90
27162;DHT22;54464;50.558;9.704;2024-01-15T05:42:42;-2.30;99.90
27162;DHT22;54464;50.558;9.704;2024-01-15T05:45:08;-2.30;99.90
27162;DHT22;54464;50.558;9.704;2024-01-15T05:47:34;-2.40;99.90
27162;DHT22;54464;50.558;9.704;2024-01-15T05:50:00;-2.30;99.90
27162;DHT22;54464;50.558;9.704;2024-01-15T05:52:26;-2.30;99.90
27162;DHT22;54464;50.558;9.704;2024-01-15T05:54:52;-2.30;99.90
27162;DHT22;54464;50.558;9.704;2024-01-15T05:57:17;-2.30;99.90
27162;DHT22;54464;50.558;9.704;2024-01-15T05:59:44;-2.30;99.90
27162;DHT22;54464;50.558;9.704;2024-01-15T06:02:10;-2.30;99.90
27162;DHT22;54464;50.558;9.704;2024-01-15T06:04:36;-2.30;99.90
27162;DHT22;54464;50.558;9.704;2024-01-15T06:07:02;-2.30;99.90
27162;DHT22;54464;50.558;9.704;2024-01-15T06:09:28;-2.30;99.90
27162;DHT22;54464;50.558;9.704;2024-01-15T06:11:54;-2.30;99.90
27162;DHT22;54464;50.558;9.704;2024-01-15T06:14:19;-2.30;99.90
27162;DHT22;54464;50.558;9.704;2024-01-15T06:16:45;-2.30;99.90
27162;DHT22;54464;50.558;9.704;2024-01-15T06:19:10;-2.30;99.90
27162;DHT22;54464;50.558;9.704;2024-01-15T06:21:36;-2.20;99.90
27162;DHT22;54464;50.558;9.704;2024-01-15T06:24:01;-2.20;99.90
27162;DHT22;54464;50.558;9.704;2024-01-15T06:26:27;-2.20;99.90
27162;DHT22;54464;50.558;9.704;2024-01-15T06:28:53;-2.20;99.90
27162;DHT22;54464;50.558;9.704;2024-01-15T06:31:18;-2.10;99.90
27162;DHT22;54464;50.558;9.704;2024-01-15T06:33:44;-2.10;99.90
27162;DHT22;54464;50.558;9.704;2024-01-15T06:36:12;-2.20;99.90
27162;DHT22;54464;50.558;9.704;2024-01-15T06:38:38;-2.10;99.90
27162;DHT22;54464;50.558;9.704;2024-01-15T06:41:03;-2.20;99.90
27162;DHT22;54464;50.558;9.704;2024-01-15T06:43:29;-2.20;99.90
27162;DHT22;54464;50.558;9.704;2024-01-15T06:45:55;-2.20;99.90
27162;DHT22;54464;50.558;9.704;2024-01-15T06:48:20;-2.10;99.90
27162;DHT22;54464;50.558;9.704;2024-01-15T06:50:46;-2.20;99.90
27162;DHT22;54464;50.558;9.704;2024-01-15T06:53:11;-2.20;99.90
27162;DHT22;54464;50.558;9.704;2024-01-15T06:55:38;-2.20;99.90
27162;DHT22;54464;50.558;9.704;2024-01-15T06:58:04;-2.10;99.90
27162;DHT22;54464;50.558;9.704;2024-01-15T07:00:30;-2.00;99.90
27162;DHT22;54464;50.558;9.704;2024-01-15T07:02:55;-2.00;99.90
27162;DHT22;54464;50.558;9.704;2024-01-15T07:05:21;-2.00;99.90
27162;DHT22;54464;50.558;9.704;2024-01-15T07:07:47;-2.00;99.90
27162;DHT22;54464;50.558;9.704;2024-01-15T07:10:13;-2.00;99.90
27162;DHT22;54464;50.558;9.704;2024-01-15T07:12:38;-1.90;99.90
27162;DHT22;54464;50.558;9.704;2024-01-15T07:15:04;-1.90;99.90
27162;DHT22;54464;50.558;9.704;2024-01-15T07:17:32;-1.90;99.90
27162;DHT22;54464;50.558;9.704;2024-01-15T07:19:58;-1.90;99.90
27162;DHT22;54464;50.558;9.704;2024-01-15T07:22:23;-1.90;99.90
27162;DHT22;54464;50.558;9.704;2024-01-15T07:24:49;-1.90;99.90
27162;DHT22;54464;50.558;9.704;2024-01-15T07:27:15;-2.00;99.90
27162;DHT22;54464;50.558;9.704;2024-01-15T07:29:40;-1.90;99.90
27162;DHT22;54464;50.558;9.704;2024-01-15T07:32:06;-1.90;99.90
27162;DHT22;54464;50.558;9.704;2024-01-15T07:34:33;-1.90;99.90
27162;DHT22;54464;50.558;9.704;2024-01-15T07:36:58;-1.90;99.90
27162;DHT22;54464;50.558;9.704;2024-01-15T09:10:28;-1.80;99.90
27162;DHT22;54464;50.558;9.704;2024-01-15T09:12:54;-1.80;99.90
27162;DHT22;54464;50.558;9.704;2024-01-15T09:15:25;-1.80;99.90
27162;DHT22;54464;50.558;9.704;2024-01-15T09:17:51;-1.80;99.90
27162;DHT22;54464;50.558;9.704;2024-01-15T09:20:19;-1.80;99.90
27162;DHT22;54464;50.558;9.704;2024-01-15T09:22:45;-1.80;99.90
27162;DHT22;54464;50.558;9.704;2024-01-15T09:25:11;-1.80;99.90
27162;DHT22;54464;50.558;9.704;2024-01-15T09:27:36;-1.80;99.90
27162;DHT22;54464;50.558;9.704;2024-01-15T09:30:03;-1.80;99.90
27162;DHT22;54464;50.558;9.704;2024-01-15T09:32:30;-1.80;99.90
27162;DHT22;54464;50.558;9.704;2024-01-15T09:34:58;-1.80;99.90
27162;DHT22;54464;50.558;9.704;2024-01-15T09:37:24;-1.80;99.90
27162;DHT22;54464;50.558;9.704;2024-01-15T09:39:49;-1.70;99.90
27162;DHT22;54464;50.558;9.704;2024-01-15T09:42:16;-1.80;99.90
27162;DHT22;54464;50.558;9.704;2024-01-15T09:44:41;-1.70;99.90
27162;DHT22;54464;50.558;9.704;2024-01-15T09:47:15;-1.70;99.90
27162;DHT22;54464;50.558;9.704;2024-01-15T09:49:41;-1.70;99.90
27162;DHT22;54464;50.558;9.704;2024-01-15T09:52:07;-1.70;99.90
27162;DHT22;54464;50.558;9.704;2024-01-15T09:54:33;-1.80;99.90
27162;DHT22;54464;50.558;9.704;2024-01-15T09:57:00;-1.90;99.90
27162;DHT22;54464;50.558;9.704;2024-01-15T09:59:27;-1.80;99.90
27162;DHT22;54464;50.558;9.704;2024-01-15T10:01:53;-1.80;99.90
27162;DHT22;54464;50.558;9.704;2024-01-15T10:04:21;-1.70;99.90
27162;DHT22;54464;50.558;9.704;2024-01-15T10:06:46;-1.70;99.90
27162;DHT22;54464;50.558;9.704;2024-01-15T10:09:13;-1.80;99.90
27162;DHT22;54464;50.558;9.704;2024-01-15T10:11:41;-1.80;99.90
27162;DHT22;54464;50.558;9.704;2024-01-15T10:14:08;-1.80;99.90
27162;DHT22;54464;50.558;9.704;2024-01-15T10:16:34;-1.80;99.90
27162;DHT22;54464;50.558;9.704;2024-01-15T10:18:59;-1.90;99.90
27162;DHT22;54464;50.558;9.704;2024-01-15T10:21:25;-1.70;99.90
27162;DHT22;54464;50.558;9.704;2024-01-15T10:23:52;-1.70;99.90
27162;DHT22;54464;50.558;9.704;2024-01-15T10:26:17;-1.70;99.90
27162;DHT22;54464;50.558;9.704;2024-01-15T10:28:43;-1.80;99.90
27162;DHT22;54464;50.558;9.704;2024-01-15T10:31:08;-1.70;99.90
27162;DHT22;54464;50.558;9.704;2024-01-15T10:33:35;-1.70;99.90
27162;DHT22;54464;50.558;9.704;2024-01-15T10:36:01;-1.60;99.90
27162;DHT22;54464;50.558;9.704;2024-01-15T10:38:27;-1.60;99.90
27162;DHT22;54464;50.558;9.704;2024-01-15T10:40:56;-1.60;99.90
27162;DHT22;54464;50.558;9.704;2024-01-15T10:43:22;-1.60;99.90
27162;DHT22;54464;50.558;9.704;2024-01-15T10:45:49;-1.60;99.90
27162;DHT22;54464;50.558;9.704;2024-01-15T10:48:17;-1.50;99.90
27162;DHT22;54464;50.558;9.704;2024-01-15T10:50:44;-1.60;99.90
27162;DHT22;54464;50.558;9.704;2024-01-15T10:53:11;-1.60;99.90
27162;DHT22;54464;50.558;9.704;2024-01-15T10:55:38;-1.60;99.90
27162;DHT22;54464;50.558;9.704;2024-01-15T10:58:05;-1.60;99.90
27162;DHT22;54464;50.558;9.704;2024-01-15T11:00:36;-1.60;99.90
27162;DHT22;54464;50.558;9.704;2024-01-15T11:03:04;-1.50;99.90
27162;DHT22;54464;50.558;9.704;2024-01-15T11:05:36;-1.40;99.90
27162;DHT22;54464;50.558;9.704;2024-01-15T11:08:02;-1.40;99.90
27162;DHT22;54464;50.558;9.704;2024-01-15T11:10:46;-1.30;99.90
27162;DHT22;54464;50.558;9.704;2024-01-15T11:18:21;-1.20;99.90
27162;DHT22;54464;50.558;9.704;2024-01-15T11:23:57;-1.10;99.90
27162;DHT22;54464;50.558;9.704;2024-01-15T11:34:07;-1.10;99.90
27162;DHT22;54464;50.558;9.704;2024-01-15T11:41:54;-1.10;99.90
27162;DHT22;54464;50.558;9.704;2024-01-15T11:44:21;-1.10;99.90
27162;DHT22;54464;50.558;9.704;2024-01-15T11:47:01;-1.00;99.90
27162;DHT22;54464;50.558;9.704;2024-01-15T11:50:00;-0.90;99.90
27162;DHT22;54464;50.558;9.704;2024-01-15T11:52:26;-0.90;99.90
27162;DHT22;54464;50.558;9.704;2024-01-15T11:57:45;-0.80;99.90
27162;DHT22;54464;50.558;9.704;2024-01-15T12:00:12;-0.80;99.90
27162;DHT22;54464;50.558;9.704;2024-01-15T12:02:40;-0.90;99.90
27162;DHT22;54464;50.558;9.704;2024-01-15T12:05:07;-1.00;99.90
27162;DHT22;54464;50.558;9.704;2024-01-15T12:07:33;-0.90;99.90
27162;DHT22;54464;50.558;9.704;2024-01-15T12:10:00;-0.90;99.90
27162;DHT22;54464;50.558;9.704;2024-01-15T12:15:24;-0.90;99.90
27162;DHT22;54464;50.558;9.704;2024-01-15T12:17:49;-1.10;99.90
27162;DHT22;54464;50.558;9.704;2024-01-15T12:20:15;-1.00;99.90
27162;DHT22;54464;50.558;9.704;2024-01-15T12:22:42;-1.00;99.90
27162;DHT22;54464;50.558;9.704;2024-01-15T12:25:09;-0.90;99.90
27162;DHT22;54464;50.558;9.704;2024-01-15T12:27:34;-0.90;99.90
27162;DHT22;54464;50.558;9.704;2024-01-15T12:30:00;-0.90;99.90
27162;DHT22;54464;50.558;9.704;2024-01-15T12:32:26;-0.90;99.90
27162;DHT22;54464;50.558;9.704;2024-01-15T12:34:51;-0.90;99.90
27162;DHT22;54464;50.558;9.704;2024-01-15T12:37:20;-0.90;99.90
27162;DHT22;54464;50.558;9.704;2024-01-15T12:39:47;-0.80;99.90
27162;DHT22;54464;50.558;9.704;2024-01-15T12:42:14;-0.80;99.90
27162;DHT22;54464;50.558;9.704;2024-01-15T12:44:40;-0.90;99.90
27162;DHT22;54464;50.558;9.704;2024-01-15T12:47:06;-0.90;99.90
27162;DHT22;54464;50.558;9.704;2024-01-15T12:49:32;-0.90;99.90
27162;DHT22;54464;50.558;9.704;2024-01-15T12:51:59;-0.90;99.90
27162;DHT22;54464;50.558;9.704;2024-01-15T12:54:25;-1.00;99.90
27162;DHT22;54464;50.558;9.704;2024-01-15T12:56:51;-1.00;99.90
27162;DHT22;54464;50.558;9.704;2024-01-15T12:59:18;-1.10;99.90
27162;DHT22;54464;50.558;9.704;2024-01-15T13:01:44;-1.10;99.90
27162;DHT22;54464;50.558;9.704;2024-01-15T13:04:10;-1.10;99.90
27162;DHT22;54464;50.558;9.704;2024-01-15T13:06:36;-1.10;99.90
27162;DHT22;54464;50.558;9.704;2024-01-15T13:09:04;-1.00;99.90
27162;DHT22;54464;50.558;9.704;2024-01-15T13:11:32;-1.10;99.90
27162;DHT22;54464;50.558;9.704;2024-01-15T13:13:58;-1.20;99.90
27162;DHT22;54464;50.558;9.704;2024-01-15T13:16:23;-1.10;99.90
27162;DHT22;54464;50.558;9.704;2024-01-15T13:18:52;-1.20;99.90
27162;DHT22;54464;50.558;9.704;2024-01-15T13:21:17;-1.10;99.90
27162;DHT22;54464;50.558;9.704;2024-01-15T13:23:43;-1.10;99.90
27162;DHT22;54464;50.558;9.704;2024-01-15T13:26:09;-1.00;99.90
27162;DHT22;54464;50.558;9.704;2024-01-15T13:28:37;-1.00;99.90
27162;DHT22;54464;50.558;9.704;2024-01-15T13:31:03;-1.00;99.90
27162;DHT22;54464;50.558;9.704;2024-01-15T13:33:30;-0.90;99.90
27162;DHT22;54464;50.558;9.704;2024-01-15T13:35:55;-0.80;99.90
27162;DHT22;54464;50.558;9.704;2024-01-15T13:38:22;-0.80;99.90
27162;DHT22;54464;50.558;9.704;2024-01-15T13:40:47;-0.80;99.90
27162;DHT22;54464;50.558;9.704;2024-01-15T13:43:13;-0.80;99.90
27162;DHT22;54464;50.558;9.704;2024-01-15T13:45:41;-0.80;99.90
27162;DHT22;54464;50.558;9.704;2024-01-15T13:48:06;-0.70;99.90
27162;DHT22;54464;50.558;9.704;2024-01-15T13:50:39;-0.70;99.90
27162;DHT22;54464;50.558;9.704;2024-01-15T13:53:04;-0.70;99.90
27162;DHT22;54464;50.558;9.704;2024-01-15T13:55:30;-0.70;99.90
27162;DHT22;54464;50.558;9.704;2024-01-15T13:57:55;-0.70;99.90
27162;DHT22;54464;50.558;9.704;2024-01-15T14:00:21;-0.70;99.90
27162;DHT22;54464;50.558;9.704;2024-01-15T14:02:48;-0.70;99.90
27162;DHT22;54464;50.558;9.704;2024-01-15T14:05:14;-0.60;99.90
27162;DHT22;54464;50.558;9.704;2024-01-15T14:07:40;-0.50;99.90
27162;DHT22;54464;50.558;9.704;2024-01-15T14:10:06;-0.50;99.90
27162;DHT22;54464;50.558;9.704;2024-01-15T14:12:33;-0.40;99.90
27162;DHT22;54464;50.558;9.704;2024-01-15T14:15:03;-0.40;99.90
27162;DHT22;54464;50.558;9.704;2024-01-15T14:17:29;-0.40;99.90
27162;DHT22;54464;50.558;9.704;2024-01-15T14:19:54;-0.10;99.90
27162;DHT22;54464;50.558;9.704;2024-01-15T14:22:20;0.60;99.90
27162;DHT22;54464;50.558;9.704;2024-01-15T14:24:46;1.30;99.90
27162;DHT22;54464;50.558;9.704;2024-01-15T14:27:11;2.00;99.90
27162;DHT22;54464;50.558;9.704;2024-01-15T14:29:37;2.20;99.90
27162;DHT22;54464;50.558;9.704;2024-01-15T14:32:05;2.30;99.90
27162;DHT22;54464;50.558;9.704;2024-01-15T14:34:31;1.50;99.90
27162;DHT22;54464;50.558;9.704;2024-01-15T14:36:56;0.80;99.90
27162;DHT22;54464;50.558;9.704;2024-01-15T14:39:22;0.60;99.90
27162;DHT22;54464;50.558;9.704;2024-01-15T14:41:48;0.50;99.90
27162;DHT22;54464;50.558;9.704;2024-01-15T14:44:14;0.40;99.90
27162;DHT22;54464;50.558;9.704;2024-01-15T14:46:40;0.30;99.90
27162;DHT22;54464;50.558;9.704;2024-01-15T14:49:06;0.30;99.90
27162;DHT22;54464;50.558;9.704;2024-01-15T14:51:31;0.30;99.90
27162;DHT22;54464;50.558;9.704;2024-01-15T14:53:57;0.30;99.90
27162;DHT22;54464;50.558;9.704;2024-01-15T14:56:23;0.30;99.90
27162;DHT22;54464;50.558;9.704;2024-01-15T14:58:48;0.30;99.90
27162;DHT22;54464;50.558;9.704;2024-01-15T15:01:14;0.30;99.90
27162;DHT22;54464;50.558;9.704;2024-01-15T15:03:40;0.20;99.90
27162;DHT22;54464;50.558;9.704;2024-01-15T15:06:06;0.20;99.90
27162;DHT22;54464;50.558;9.704;2024-01-15T15:08:34;0.20;99.90
27162;DHT22;54464;50.558;9.704;2024-01-15T15:11:04;0.20;99.90
27162;DHT22;54464;50.558;9.704;2024-01-15T15:13:29;0.20;99.90
27162;DHT22;54464;50.558;9.704;2024-01-15T15:15:55;0.20;99.90
27162;DHT22;54464;50.558;9.704;2024-01-15T15:18:23;0.20;99.90
27162;DHT22;54464;50.558;9.704;2024-01-15T15:20:49;0.20;99.90
27162;DHT22;54464;50.558;9.704;2024-01-15T15:23:16;0.20;99.90
27162;DHT22;54464;50.558;9.704;2024-01-15T15:25:42;0.20;99.90
27162;DHT22;54464;50.558;9.704;2024-01-15T15:28:11;0.20;99.90
27162;DHT22;54464;50.558;9.704;2024-01-15T15:30:37;0.20;99.90
27162;DHT22;54464;50.558;9.704;2024-01-15T15:33:03;0.20;99.90
27162;DHT22;54464;50.558;9.704;2024-01-15T15:35:29;0.20;99.90
27162;DHT22;54464;50.558;9.704;2024-01-15T15:37:54;0.30;99.90
27162;DHT22;54464;50.558;9.704;2024-01-15T15:40:20;0.30;99.90
27162;DHT22;54464;50.558;9.704;2024-01-15T15:42:46;0.30;99.90
27162;DHT22;54464;50.558;9.704;2024-01-15T15:45:12;0.30;99.90
27162;DHT22;54464;50.558;9.704;2024-01-15T15:47:38;0.40;99.90
27162;DHT22;54464;50.558;9.704;2024-01-15T15:50:04;0.50;99.90
27162;DHT22;54464;50.558;9.704;2024-01-15T15:52:32;0.50;99.90
27162;DHT22;54464;50.558;9.704;2024-01-15T15:58:13;0.40;99.90
27162;DHT22;54464;50.558;9.704;2024-01-15T16:00:39;0.40;99.90
27162;DHT22;54464;50.558;9.704;2024-01-15T16:03:04;0.40;99.90
27162;DHT22;54464;50.558;9.704;2024-01-15T16:05:30;0.40;99.90
27162;DHT22;54464;50.558;9.704;2024-01-15T16:07:55;0.40;99.90
27162;DHT22;54464;50.558;9.704;2024-01-15T16:10:21;0.40;99.90
27162;DHT22;54464;50.558;9.704;2024-01-15T16:12:49;0.40;99.90
27162;DHT22;54464;50.558;9.704;2024-01-15T16:15:20;0.40;99.90
27162;DHT22;54464;50.558;9.704;2024-01-15T16:17:46;0.30;99.90
27162;DHT22;54464;50.558;9.704;2024-01-15T16:20:12;0.30;99.90
27162;DHT22;54464;50.558;9.704;2024-01-15T16:22:38;0.30;99.90
27162;DHT22;54464;50.558;9.704;2024-01-15T16:25:03;0.30;99.90
27162;DHT22;54464;50.558;9.704;2024-01-15T16:27:30;0.30;99.90
27162;DHT22;54464;50.558;9.704;2024-01-15T16:29:55;0.30;99.90
27162;DHT22;54464;50.558;9.704;2024-01-15T16:32:21;0.30;99.90
27162;DHT22;54464;50.558;9.704;2024-01-15T16:34:48;0.30;99.90
27162;DHT22;54464;50.558;9.704;2024-01-15T16:37:13;0.30;99.90
27162;DHT22;54464;50.558;9.704;2024-01-15T16:39:39;0.30;99.90
27162;DHT22;54464;50.558;9.704;2024-01-15T16:42:05;0.30;99.90
27162;DHT22;54464;50.558;9.704;2024-01-15T16:44:33;0.40;99.90
27162;DHT22;54464;50.558;9.704;2024-01-15T16:46:59;0.30;99.90
27162;DHT22;54464;50.558;9.704;2024-01-15T16:49:26;0.30;99.90
27162;DHT22;54464;50.558;9.704;2024-01-15T16:51:52;0.30;99.90
27162;DHT22;54464;50.558;9.704;2024-01-15T16:54:17;0.30;99.90
27162;DHT22;54464;50.558;9.704;2024-01-15T16:56:43;0.30;99.90
27162;DHT22;54464;50.558;9.704;2024-01-15T16:59:10;0.20;99.90
27162;DHT22;54464;50.558;9.704;2024-01-15T17:01:36;0.30;99.90
27162;DHT22;54464;50.558;9.704;2024-01-15T17:04:01;0.30;99.90
27162;DHT22;54464;50.558;9.704;2024-01-15T17:06:27;0.30;99.90
27162;DHT22;54464;50.558;9.704;2024-01-15T17:08:52;0.30;99.90
27162;DHT22;54464;50.558;9.704;2024-01-15T17:11:18;0.30;99.90
27162;DHT22;54464;50.558;9.704;2024-01-15T17:13:44;0.30;99.90
27162;DHT22;54464;50.558;9.704;2024-01-15T17:16:09;0.20;99.90
27162;DHT22;54464;50.558;9.704;2024-01-15T17:18:35;0.20;99.90
27162;DHT22;54464;50.558;9.704;2024-01-15T17:21:00;0.20;99.90
27162;DHT22;54464;50.558;9.704;2024-01-15T17:23:26;0.30;99.90
27162;DHT22;54464;50.558;9.704;2024-01-15T17:25:51;0.30;99.90
27162;DHT22;54464;50.558;9.704;2024-01-15T17:28:17;0.40;99.90
27162;DHT22;54464;50.558;9.704;2024-01-15T17:30:43;0.30;99.90
27162;DHT22;54464;50.558;9.704;2024-01-15T17:33:10;0.30;99.90
27162;DHT22;54464;50.558;9.704;2024-01-15T17:35:36;0.30;99.90
27162;DHT22;54464;50.558;9.704;2024-01-15T17:38:01;0.20;99.90
27162;DHT22;54464;50.558;9.704;2024-01-15T17:40:27;0.20;99.90
27162;DHT22;54464;50.558;9.704;2024-01-15T17:42:53;0.20;99.90
27162;DHT22;54464;50.558;9.704;2024-01-15T17:45:18;0.20;99.90
27162;DHT22;54464;50.558;9.704;2024-01-15T17:47:44;0.20;99.90
27162;DHT22;54464;50.558;9.704;2024-01-15T17:50:10;0.20;99.90
27162;DHT22;54464;50.558;9.704;2024-01-15T17:52:36;0.30;99.90
27162;DHT22;54464;50.558;9.704;2024-01-15T17:55:02;0.30;99.90
27162;DHT22;54464;50.558;9.704;2024-01-15T17:57:28;0.30;99.90
27162;DHT22;54464;50.558;9.704;2024-01-15T17:59:54;0.20;99.90
27162;DHT22;54464;50.558;9.704;2024-01-15T18:02:19;0.30;99.90
27162;DHT22;54464;50.558;9.704;2024-01-15T18:04:45;0.30;99.90
27162;DHT22;54464;50.558;9.704;2024-01-15T18:07:10;0.30;99.90
27162;DHT22;54464;50.558;9.704;2024-01-15T18:09:36;0.20;99.90
27162;DHT22;54464;50.558;9.704;2024-01-15T18:12:02;0.30;99.90
27162;DHT22;54464;50.558;9.704;2024-01-15T18:14:27;0.20;99.90
27162;DHT22;54464;50.558;9.704;2024-01-15T18:16:54;0.20;99.90
27162;DHT22;54464;50.558;9.704;2024-01-15T18:19:19;0.20;99.90
27162;DHT22;54464;50.558;9.704;2024-01-15T18:21:45;0.10;99.90
27162;DHT22;54464;50.558;9.704;2024-01-15T18:24:12;0.10;99.90
27162;DHT22;54464;50.558;9.704;2024-01-15T18:26:39;0.10;99.90
27162;DHT22;54464;50.558;9.704;2024-01-15T18:29:05;-0.10;99.90
27162;DHT22;54464;50.558;9.704;2024-01-15T18:31:31;-0.10;99.90
27162;DHT22;54464;50.558;9.704;2024-01-15T18:33:56;-0.10;99.90
27162;DHT22;54464;50.558;9.704;2024-01-15T18:36:22;-0.20;99.90
27162;DHT22;54464;50.558;9.704;2024-01-15T18:38:48;-0.20;99.90
27162;DHT22;54464;50.558;9.704;2024-01-15T18:41:23;-0.10;99.90
27162;DHT22;54464;50.558;9.704;2024-01-15T18:43:51;-0.20;99.90
27162;DHT22;54464;50.558;9.704;2024-01-15T18:46:20;-0.20;99.90
27162;DHT22;54464;50.558;9.704;2024-01-15T18:48:45;-0.30;99.90
27162;DHT22;54464;50.558;9.704;2024-01-15T18:51:21;-0.30;99.90
27162;DHT22;54464;50.558;9.704;2024-01-15T18:53:47;-0.30;99.90
27162;DHT22;54464;50.558;9.704;2024-01-15T18:56:13;-0.30;99.90